sensor_id;sensor_type;location;lat;lon;timestamp;P1;durP1;ratioP1;P2;durP2;ratioP2
52956;SDS011;38819;42.692;23.342;2022-09-17T00:00:13;7.65;;;4.80;;
52956;SDS011;38819;42.692;23.342;2022-09-17T00:02:39;9.45;;;4.68;;
52956;SDS011;38819;42.692;23.342;2022-09-17T00:05:07;9.10;;;4.97;;
52956;SDS011;38819;42.692;23.342;2022-09-17T00:07:33;12.23;;;4.97;;
52956;SDS011;38819;42.692;23.342;2022-09-17T00:09:59;5.47;;;4.28;;
52956;SDS011;38819;42.692;23.342;2022-09-17T00:12:24;11.30;;;5.10;;
52956;SDS011;38819;42.692;23.342;2022-09-17T00:14:50;9.82;;;4.53;;
52956;SDS011;38819;42.692;23.342;2022-09-17T00:17:15;9.77;;;5.20;;
52956;SDS011;38819;42.692;23.342;2022-09-17T00:19:40;6.03;;;4.57;;
52956;SDS011;38819;42.692;23.342;2022-09-17T00:22:06;7.88;;;4.70;;
52956;SDS011;38819;42.692;23.342;2022-09-17T00:24:31;10.90;;;5.22;;
52956;SDS011;38819;42.692;23.342;2022-09-17T00:26:57;12.23;;;4.18;;
52956;SDS011;38819;42.692;23.342;2022-09-17T00:29:22;12.35;;;5.55;;
52956;SDS011;38819;42.692;23.342;2022-09-17T00:31:48;8.50;;;4.85;;
52956;SDS011;38819;42.692;23.342;2022-09-17T00:34:14;11.30;;;5.38;;
52956;SDS011;38819;42.692;23.342;2022-09-17T00:36:39;18.05;;;4.88;;
52956;SDS011;38819;42.692;23.342;2022-09-17T00:39:08;10.63;;;4.90;;
52956;SDS011;38819;42.692;23.342;2022-09-17T00:41:36;11.25;;;5.22;;
52956;SDS011;38819;42.692;23.342;2022-09-17T00:47:11;14.50;;;4.88;;
52956;SDS011;38819;42.692;23.342;2022-09-17T00:49:40;14.38;;;4.63;;
52956;SDS011;38819;42.692;23.342;2022-09-17T00:52:10;10.63;;;4.32;;
52956;SDS011;38819;42.692;23.342;2022-09-17T00:54:39;10.90;;;4.40;;
52956;SDS011;38819;42.692;23.342;2022-09-17T00:57:07;7.00;;;4.18;;
52956;SDS011;38819;42.692;23.342;2022-09-17T00:59:32;8.80;;;4.50;;
52956;SDS011;38819;42.692;23.342;2022-09-17T01:01:58;10.13;;;4.05;;
52956;SDS011;38819;42.692;23.342;2022-09-17T01:04:25;4.60;;;3.67;;
52956;SDS011;38819;42.692;23.342;2022-09-17T01:07:34;12.40;;;4.32;;
52956;SDS011;38819;42.692;23.342;2022-09-17T01:09:52;9.18;;;3.92;;
52956;SDS011;38819;42.692;23.342;2022-09-17T01:18:13;9.98;;;3.72;;
52956;SDS011;38819;42.692;23.342;2022-09-17T01:33:38;10.00;;;4.50;;
52956;SDS011;38819;42.692;23.342;2022-09-17T01:36:24;11.93;;;3.55;;
52956;SDS011;38819;42.692;23.342;2022-09-17T01:47:50;8.45;;;3.95;;
52956;SDS011;38819;42.692;23.342;2022-09-17T01:50:20;6.07;;;4.22;;
52956;SDS011;38819;42.692;23.342;2022-09-17T01:52:51;8.57;;;4.15;;
52956;SDS011;38819;42.692;23.342;2022-09-17T01:55:18;10.25;;;4.22;;
52956;SDS011;38819;42.692;23.342;2022-09-17T01:57:49;8.90;;;4.30;;
52956;SDS011;38819;42.692;23.342;2022-09-17T02:00:17;11.93;;;4.22;;
52956;SDS011;38819;42.692;23.342;2022-09-17T02:02:51;8.80;;;3.75;;
52956;SDS011;38819;42.692;23.342;2022-09-17T02:05:28;9.23;;;4.28;;
52956;SDS011;38819;42.692;23.342;2022-09-17T02:08:05;7.45;;;3.47;;
52956;SDS011;38819;42.692;23.342;2022-09-17T02:10:36;6.53;;;3.92;;
52956;SDS011;38819;42.692;23.342;2022-09-17T02:13:08;7.03;;;3.25;;
52956;SDS011;38819;42.692;23.342;2022-09-17T02:15:41;6.88;;;3.92;;
52956;SDS011;38819;42.692;23.342;2022-09-17T02:18:17;6.45;;;3.63;;
52956;SDS011;38819;42.692;23.342;2022-09-17T02:21:34;8.65;;;3.88;;
52956;SDS011;38819;42.692;23.342;2022-09-17T02:24:22;12.15;;;4.40;;
52956;SDS011;38819;42.692;23.342;2022-09-17T02:26:46;6.75;;;4.10;;
52956;SDS011;38819;42.692;23.342;2022-09-17T02:29:22;9.10;;;4.05;;
52956;SDS011;38819;42.692;23.342;2022-09-17T02:31:59;11.10;;;4.10;;
52956;SDS011;38819;42.692;23.342;2022-09-17T02:34:26;7.65;;;4.03;;
52956;SDS011;38819;42.692;23.342;2022-09-17T02:36:53;8.10;;;3.92;;
52956;SDS011;38819;42.692;23.342;2022-09-17T02:39:20;10.18;;;4.25;;
52956;SDS011;38819;42.692;23.342;2022-09-17T02:41:49;8.98;;;3.42;;
52956;SDS011;38819;42.692;23.342;2022-09-17T02:55:35;11.45;;;3.92;;
52956;SDS011;38819;42.692;23.342;2022-09-17T02:58:13;5.75;;;3.63;;
52956;SDS011;38819;42.692;23.342;2022-09-17T03:00:41;8.35;;;2.80;;
52956;SDS011;38819;42.692;23.342;2022-09-17T03:03:12;7.13;;;3.65;;
52956;SDS011;38819;42.692;23.342;2022-09-17T03:05:51;6.18;;;3.60;;
52956;SDS011;38819;42.692;23.342;2022-09-17T03:08:18;4.78;;;3.15;;
52956;SDS011;38819;42.692;23.342;2022-09-17T03:10:45;10.60;;;3.97;;
52956;SDS011;38819;42.692;23.342;2022-09-17T03:13:13;11.63;;;3.60;;
52956;SDS011;38819;42.692;23.342;2022-09-17T03:15:39;11.25;;;3.90;;
52956;SDS011;38819;42.692;23.342;2022-09-17T03:18:04;5.75;;;3.40;;
52956;SDS011;38819;42.692;23.342;2022-09-17T03:20:30;4.95;;;3.10;;
52956;SDS011;38819;42.692;23.342;2022-09-17T03:22:56;10.07;;;3.83;;
52956;SDS011;38819;42.692;23.342;2022-09-17T03:25:22;12.43;;;3.83;;
52956;SDS011;38819;42.692;23.342;2022-09-17T03:27:47;5.88;;;3.38;;
52956;SDS011;38819;42.692;23.342;2022-09-17T03:30:12;12.35;;;3.67;;
52956;SDS011;38819;42.692;23.342;2022-09-17T03:32:38;7.20;;;3.60;;
52956;SDS011;38819;42.692;23.342;2022-09-17T03:35:03;9.23;;;3.75;;
52956;SDS011;38819;42.692;23.342;2022-09-17T03:37:29;9.43;;;3.80;;
52956;SDS011;38819;42.692;23.342;2022-09-17T03:39:55;10.02;;;3.50;;
52956;SDS011;38819;42.692;23.342;2022-09-17T03:42:20;9.40;;;3.38;;
52956;SDS011;38819;42.692;23.342;2022-09-17T03:44:45;7.72;;;3.58;;
52956;SDS011;38819;42.692;23.342;2022-09-17T03:47:11;6.80;;;3.15;;
52956;SDS011;38819;42.692;23.342;2022-09-17T03:49:36;7.40;;;4.03;;
52956;SDS011;38819;42.692;23.342;2022-09-17T03:52:02;6.80;;;3.40;;
52956;SDS011;38819;42.692;23.342;2022-09-17T03:54:27;8.18;;;3.88;;
52956;SDS011;38819;42.692;23.342;2022-09-17T03:56:53;10.02;;;3.90;;
52956;SDS011;38819;42.692;23.342;2022-09-17T03:59:18;11.38;;;3.13;;
52956;SDS011;38819;42.692;23.342;2022-09-17T04:01:44;8.65;;;2.72;;
52956;SDS011;38819;42.692;23.342;2022-09-17T04:04:09;8.45;;;3.50;;
52956;SDS011;38819;42.692;23.342;2022-09-17T04:06:34;8.48;;;2.90;;
52956;SDS011;38819;42.692;23.342;2022-09-17T04:09:00;9.18;;;3.13;;
52956;SDS011;38819;42.692;23.342;2022-09-17T04:11:27;7.78;;;3.28;;
52956;SDS011;38819;42.692;23.342;2022-09-17T04:13:53;6.38;;;2.63;;
52956;SDS011;38819;42.692;23.342;2022-09-17T04:16:18;8.32;;;3.20;;
52956;SDS011;38819;42.692;23.342;2022-09-17T04:18:44;6.32;;;3.33;;
52956;SDS011;38819;42.692;23.342;2022-09-17T04:21:09;12.88;;;4.18;;
52956;SDS011;38819;42.692;23.342;2022-09-17T04:23:34;11.35;;;3.38;;
52956;SDS011;38819;42.692;23.342;2022-09-17T04:26:00;7.28;;;3.78;;
52956;SDS011;38819;42.692;23.342;2022-09-17T04:28:25;5.05;;;3.20;;
52956;SDS011;38819;42.692;23.342;2022-09-17T04:30:51;7.95;;;3.83;;
52956;SDS011;38819;42.692;23.342;2022-09-17T04:33:16;10.40;;;5.40;;
52956;SDS011;38819;42.692;23.342;2022-09-17T04:35:42;9.35;;;5.10;;
52956;SDS011;38819;42.692;23.342;2022-09-17T04:38:07;13.85;;;6.90;;
52956;SDS011;38819;42.692;23.342;2022-09-17T04:40:33;21.92;;;12.55;;
52956;SDS011;38819;42.692;23.342;2022-09-17T04:42:59;20.05;;;11.23;;
52956;SDS011;38819;42.692;23.342;2022-09-17T04:45:27;23.92;;;10.23;;
52956;SDS011;38819;42.692;23.342;2022-09-17T04:47:53;21.30;;;9.68;;
52956;SDS011;38819;42.692;23.342;2022-09-17T04:50:19;23.90;;;10.20;;
52956;SDS011;38819;42.692;23.342;2022-09-17T04:52:45;17.00;;;9.18;;
52956;SDS011;38819;42.692;23.342;2022-09-17T04:55:11;17.65;;;9.80;;
52956;SDS011;38819;42.692;23.342;2022-09-17T04:57:37;18.00;;;9.13;;
52956;SDS011;38819;42.692;23.342;2022-09-17T05:00:04;17.25;;;7.57;;
52956;SDS011;38819;42.692;23.342;2022-09-17T05:02:33;15.32;;;6.57;;
52956;SDS011;38819;42.692;23.342;2022-09-17T05:04:59;8.80;;;5.78;;
52956;SDS011;38819;42.692;23.342;2022-09-17T05:07:24;11.55;;;4.43;;
52956;SDS011;38819;42.692;23.342;2022-09-17T05:09:50;10.23;;;3.45;;
52956;SDS011;38819;42.692;23.342;2022-09-17T05:12:15;15.88;;;4.38;;
52956;SDS011;38819;42.692;23.342;2022-09-17T05:14:40;8.05;;;3.50;;
52956;SDS011;38819;42.692;23.342;2022-09-17T05:17:06;11.23;;;3.80;;
52956;SDS011;38819;42.692;23.342;2022-09-17T05:19:31;8.05;;;3.53;;
52956;SDS011;38819;42.692;23.342;2022-09-17T05:21:57;7.57;;;3.05;;
52956;SDS011;38819;42.692;23.342;2022-09-17T05:24:22;12.70;;;3.42;;
52956;SDS011;38819;42.692;23.342;2022-09-17T05:26:48;10.35;;;3.47;;
52956;SDS011;38819;42.692;23.342;2022-09-17T05:29:13;12.85;;;3.90;;
52956;SDS011;38819;42.692;23.342;2022-09-17T05:31:38;9.45;;;3.33;;
52956;SDS011;38819;42.692;23.342;2022-09-17T05:34:04;11.57;;;3.70;;
52956;SDS011;38819;42.692;23.342;2022-09-17T05:36:29;12.68;;;3.63;;
52956;SDS011;38819;42.692;23.342;2022-09-17T05:38:55;16.55;;;3.28;;
52956;SDS011;38819;42.692;23.342;2022-09-17T05:41:20;13.95;;;3.92;;
52956;SDS011;38819;42.692;23.342;2022-09-17T05:43:46;10.77;;;4.00;;
52956;SDS011;38819;42.692;23.342;2022-09-17T05:46:11;10.48;;;3.70;;
52956;SDS011;38819;42.692;23.342;2022-09-17T05:48:36;12.50;;;3.15;;
52956;SDS011;38819;42.692;23.342;2022-09-17T05:51:02;10.65;;;3.55;;
52956;SDS011;38819;42.692;23.342;2022-09-17T05:53:27;7.63;;;3.65;;
52956;SDS011;38819;42.692;23.342;2022-09-17T05:55:56;8.55;;;3.47;;
52956;SDS011;38819;42.692;23.342;2022-09-17T05:58:22;10.73;;;3.53;;
52956;SDS011;38819;42.692;23.342;2022-09-17T06:00:48;12.07;;;4.68;;
52956;SDS011;38819;42.692;23.342;2022-09-17T06:03:14;7.15;;;4.30;;
52956;SDS011;38819;42.692;23.342;2022-09-17T06:05:41;13.98;;;4.90;;
52956;SDS011;38819;42.692;23.342;2022-09-17T06:08:08;10.38;;;3.85;;
52956;SDS011;38819;42.692;23.342;2022-09-17T06:10:37;18.85;;;4.47;;
52956;SDS011;38819;42.692;23.342;2022-09-17T06:13:03;14.13;;;4.30;;
52956;SDS011;38819;42.692;23.342;2022-09-17T06:15:29;13.63;;;7.00;;
52956;SDS011;38819;42.692;23.342;2022-09-17T06:17:55;19.33;;;5.53;;
52956;SDS011;38819;42.692;23.342;2022-09-17T06:20:20;18.08;;;5.60;;
52956;SDS011;38819;42.692;23.342;2022-09-17T06:22:46;12.82;;;4.35;;
52956;SDS011;38819;42.692;23.342;2022-09-17T06:25:11;12.02;;;4.75;;
52956;SDS011;38819;42.692;23.342;2022-09-17T06:27:37;11.13;;;4.03;;
52956;SDS011;38819;42.692;23.342;2022-09-17T06:30:03;17.52;;;4.00;;
52956;SDS011;38819;42.692;23.342;2022-09-17T06:32:29;12.48;;;3.95;;
52956;SDS011;38819;42.692;23.342;2022-09-17T06:34:56;10.70;;;3.63;;
52956;SDS011;38819;42.692;23.342;2022-09-17T06:37:29;11.90;;;3.38;;
52956;SDS011;38819;42.692;23.342;2022-09-17T06:39:56;8.27;;;2.92;;
52956;SDS011;38819;42.692;23.342;2022-09-17T06:42:23;11.95;;;3.53;;
52956;SDS011;38819;42.692;23.342;2022-09-17T06:44:55;9.25;;;2.30;;
52956;SDS011;38819;42.692;23.342;2022-09-17T06:47:23;10.55;;;3.47;;
52956;SDS011;38819;42.692;23.342;2022-09-17T06:49:49;8.25;;;2.90;;
52956;SDS011;38819;42.692;23.342;2022-09-17T06:52:14;13.02;;;3.45;;
52956;SDS011;38819;42.692;23.342;2022-09-17T06:54:40;9.10;;;3.08;;
52956;SDS011;38819;42.692;23.342;2022-09-17T06:57:05;12.45;;;3.95;;
52956;SDS011;38819;42.692;23.342;2022-09-17T06:59:31;9.73;;;3.78;;
52956;SDS011;38819;42.692;23.342;2022-09-17T07:01:56;12.25;;;4.38;;
52956;SDS011;38819;42.692;23.342;2022-09-17T07:04:21;13.75;;;5.47;;
52956;SDS011;38819;42.692;23.342;2022-09-17T07:06:47;11.98;;;4.10;;
52956;SDS011;38819;42.692;23.342;2022-09-17T07:09:13;14.30;;;4.35;;
52956;SDS011;38819;42.692;23.342;2022-09-17T07:11:38;8.93;;;3.42;;
52956;SDS011;38819;42.692;23.342;2022-09-17T07:14:04;11.23;;;3.35;;
52956;SDS011;38819;42.692;23.342;2022-09-17T07:16:31;19.63;;;4.57;;
52956;SDS011;38819;42.692;23.342;2022-09-17T07:19:00;7.35;;;3.92;;
52956;SDS011;38819;42.692;23.342;2022-09-17T07:21:26;12.45;;;5.68;;
52956;SDS011;38819;42.692;23.342;2022-09-17T07:23:52;8.60;;;4.03;;
52956;SDS011;38819;42.692;23.342;2022-09-17T07:26:17;15.77;;;5.38;;
52956;SDS011;38819;42.692;23.342;2022-09-17T07:28:43;10.70;;;4.45;;
52956;SDS011;38819;42.692;23.342;2022-09-17T07:31:09;13.85;;;4.80;;
52956;SDS011;38819;42.692;23.342;2022-09-17T07:33:35;13.17;;;4.80;;
52956;SDS011;38819;42.692;23.342;2022-09-17T07:36:03;12.15;;;4.30;;
52956;SDS011;38819;42.692;23.342;2022-09-17T07:38:30;8.52;;;3.33;;
52956;SDS011;38819;42.692;23.342;2022-09-17T07:43:25;9.88;;;2.72;;
52956;SDS011;38819;42.692;23.342;2022-09-17T07:45:52;7.65;;;2.85;;
52956;SDS011;38819;42.692;23.342;2022-09-17T07:48:18;16.13;;;3.03;;
52956;SDS011;38819;42.692;23.342;2022-09-17T07:50:44;5.63;;;2.63;;
52956;SDS011;38819;42.692;23.342;2022-09-17T07:53:10;5.82;;;1.95;;
52956;SDS011;38819;42.692;23.342;2022-09-17T07:55:36;5.88;;;2.55;;
52956;SDS011;38819;42.692;23.342;2022-09-17T07:58:02;10.57;;;2.15;;
52956;SDS011;38819;42.692;23.342;2022-09-17T08:00:27;6.75;;;1.92;;
52956;SDS011;38819;42.692;23.342;2022-09-17T08:02:53;4.95;;;2.10;;
52956;SDS011;38819;42.692;23.342;2022-09-17T08:05:22;9.43;;;2.63;;
52956;SDS011;38819;42.692;23.342;2022-09-17T08:07:52;5.78;;;2.17;;
52956;SDS011;38819;42.692;23.342;2022-09-17T08:10:19;6.28;;;2.05;;
52956;SDS011;38819;42.692;23.342;2022-09-17T08:12:49;6.22;;;2.33;;
52956;SDS011;38819;42.692;23.342;2022-09-17T08:15:18;6.03;;;2.28;;
52956;SDS011;38819;42.692;23.342;2022-09-17T08:17:47;7.53;;;2.47;;
52956;SDS011;38819;42.692;23.342;2022-09-17T08:20:13;5.38;;;1.52;;
52956;SDS011;38819;42.692;23.342;2022-09-17T08:22:39;3.88;;;1.52;;
52956;SDS011;38819;42.692;23.342;2022-09-17T08:25:05;3.67;;;1.50;;
52956;SDS011;38819;42.692;23.342;2022-09-17T08:27:32;2.00;;;1.15;;
52956;SDS011;38819;42.692;23.342;2022-09-17T08:29:58;4.65;;;1.67;;
52956;SDS011;38819;42.692;23.342;2022-09-17T08:32:23;5.00;;;1.50;;
52956;SDS011;38819;42.692;23.342;2022-09-17T08:34:49;3.55;;;1.45;;
52956;SDS011;38819;42.692;23.342;2022-09-17T08:37:15;6.22;;;1.50;;
52956;SDS011;38819;42.692;23.342;2022-09-17T08:39:40;3.63;;;1.20;;
52956;SDS011;38819;42.692;23.342;2022-09-17T08:42:11;4.45;;;1.30;;
52956;SDS011;38819;42.692;23.342;2022-09-17T08:44:43;3.20;;;1.45;;
52956;SDS011;38819;42.692;23.342;2022-09-17T09:00:00;3.30;;;1.10;;
52956;SDS011;38819;42.692;23.342;2022-09-17T09:05:03;2.35;;;1.40;;
52956;SDS011;38819;42.692;23.342;2022-09-17T09:08:33;3.67;;;1.80;;
52956;SDS011;38819;42.692;23.342;2022-09-17T09:11:01;4.90;;;1.58;;
52956;SDS011;38819;42.692;23.342;2022-09-17T09:13:31;4.43;;;1.67;;
52956;SDS011;38819;42.692;23.342;2022-09-17T09:16:05;5.68;;;1.75;;
52956;SDS011;38819;42.692;23.342;2022-09-17T09:19:43;9.32;;;6.13;;
52956;SDS011;38819;42.692;23.342;2022-09-17T09:27:27;3.22;;;1.90;;
52956;SDS011;38819;42.692;23.342;2022-09-17T09:30:04;9.65;;;2.45;;
52956;SDS011;38819;42.692;23.342;2022-09-17T09:35:33;8.48;;;2.63;;
52956;SDS011;38819;42.692;23.342;2022-09-17T09:38:05;10.48;;;2.38;;
52956;SDS011;38819;42.692;23.342;2022-09-17T09:40:56;6.03;;;2.08;;
52956;SDS011;38819;42.692;23.342;2022-09-17T09:43:42;6.13;;;2.85;;
52956;SDS011;38819;42.692;23.342;2022-09-17T09:54:56;4.13;;;2.75;;
52956;SDS011;38819;42.692;23.342;2022-09-17T09:57:42;8.30;;;3.08;;
52956;SDS011;38819;42.692;23.342;2022-09-17T10:03:10;8.13;;;3.83;;
52956;SDS011;38819;42.692;23.342;2022-09-17T10:05:51;14.48;;;5.18;;
52956;SDS011;38819;42.692;23.342;2022-09-17T10:08:16;10.32;;;5.22;;
52956;SDS011;38819;42.692;23.342;2022-09-17T10:13:21;8.15;;;4.00;;
52956;SDS011;38819;42.692;23.342;2022-09-17T10:15:46;13.30;;;4.25;;
52956;SDS011;38819;42.692;23.342;2022-09-17T10:20:49;14.23;;;5.20;;
52956;SDS011;38819;42.692;23.342;2022-09-17T10:23:16;11.98;;;4.03;;
52956;SDS011;38819;42.692;23.342;2022-09-17T10:25:42;11.02;;;5.35;;
52956;SDS011;38819;42.692;23.342;2022-09-17T10:31:07;14.23;;;5.82;;
52956;SDS011;38819;42.692;23.342;2022-09-17T10:33:37;14.45;;;5.20;;
52956;SDS011;38819;42.692;23.342;2022-09-17T10:36:11;11.52;;;5.38;;
52956;SDS011;38819;42.692;23.342;2022-09-17T10:38:44;10.05;;;3.63;;
52956;SDS011;38819;42.692;23.342;2022-09-17T10:43:40;10.52;;;3.50;;
52956;SDS011;38819;42.692;23.342;2022-09-17T10:46:11;8.83;;;3.03;;
52956;SDS011;38819;42.692;23.342;2022-09-17T10:49:26;8.15;;;3.15;;
52956;SDS011;38819;42.692;23.342;2022-09-17T10:51:47;8.90;;;2.85;;
52956;SDS011;38819;42.692;23.342;2022-09-17T10:54:36;7.05;;;2.80;;
52956;SDS011;38819;42.692;23.342;2022-09-17T10:57:04;5.10;;;2.65;;
52956;SDS011;38819;42.692;23.342;2022-09-17T11:24:36;9.00;;;2.63;;
52956;SDS011;38819;42.692;23.342;2022-09-17T11:35:32;4.30;;;3.25;;
52956;SDS011;38819;42.692;23.342;2022-09-17T11:41:40;9.52;;;5.07;;
52956;SDS011;38819;42.692;23.342;2022-09-17T11:43:39;6.18;;;4.75;;
52956;SDS011;38819;42.692;23.342;2022-09-17T11:48:39;6.50;;;3.97;;
52956;SDS011;38819;42.692;23.342;2022-09-17T11:56:35;5.53;;;3.15;;
52956;SDS011;38819;42.692;23.342;2022-09-17T11:59:12;5.90;;;3.60;;
52956;SDS011;38819;42.692;23.342;2022-09-17T12:01:45;9.55;;;3.25;;
52956;SDS011;38819;42.692;23.342;2022-09-17T12:04:36;9.88;;;3.70;;
52956;SDS011;38819;42.692;23.342;2022-09-17T12:15:48;5.10;;;2.78;;
52956;SDS011;38819;42.692;23.342;2022-09-17T12:21:18;4.25;;;2.55;;
52956;SDS011;38819;42.692;23.342;2022-09-17T12:24:01;8.98;;;3.35;;
52956;SDS011;38819;42.692;23.342;2022-09-17T12:29:32;5.85;;;3.92;;
52956;SDS011;38819;42.692;23.342;2022-09-17T12:34:49;5.72;;;3.03;;
52956;SDS011;38819;42.692;23.342;2022-09-17T12:37:28;11.70;;;4.28;;
52956;SDS011;38819;42.692;23.342;2022-09-17T12:57:01;8.60;;;3.53;;
52956;SDS011;38819;42.692;23.342;2022-09-17T12:59:51;9.10;;;3.92;;
52956;SDS011;38819;42.692;23.342;2022-09-17T13:10:39;10.02;;;3.30;;
52956;SDS011;38819;42.692;23.342;2022-09-17T13:24:20;16.17;;;4.50;;
52956;SDS011;38819;42.692;23.342;2022-09-17T13:26:49;17.42;;;6.63;;
52956;SDS011;38819;42.692;23.342;2022-09-17T13:32:08;9.52;;;4.05;;
52956;SDS011;38819;42.692;23.342;2022-09-17T13:34:53;11.98;;;4.20;;
52956;SDS011;38819;42.692;23.342;2022-09-17T13:37:18;6.00;;;3.00;;
52956;SDS011;38819;42.692;23.342;2022-09-17T13:39:49;4.13;;;2.47;;
52956;SDS011;38819;42.692;23.342;2022-09-17T13:42:27;7.45;;;2.50;;
52956;SDS011;38819;42.692;23.342;2022-09-17T13:45:03;4.35;;;2.25;;
52956;SDS011;38819;42.692;23.342;2022-09-17T13:47:32;9.57;;;2.88;;
52956;SDS011;38819;42.692;23.342;2022-09-17T13:50:04;10.70;;;3.35;;
52956;SDS011;38819;42.692;23.342;2022-09-17T13:52:33;11.93;;;3.75;;
52956;SDS011;38819;42.692;23.342;2022-09-17T13:55:01;6.97;;;3.38;;
52956;SDS011;38819;42.692;23.342;2022-09-17T13:57:28;12.15;;;4.10;;
52956;SDS011;38819;42.692;23.342;2022-09-17T13:59:57;7.55;;;4.10;;
52956;SDS011;38819;42.692;23.342;2022-09-17T14:02:26;8.00;;;3.78;;
52956;SDS011;38819;42.692;23.342;2022-09-17T14:04:54;10.23;;;3.35;;
52956;SDS011;38819;42.692;23.342;2022-09-17T14:09:56;12.23;;;3.22;;
52956;SDS011;38819;42.692;23.342;2022-09-17T14:15:02;6.00;;;2.90;;
52956;SDS011;38819;42.692;23.342;2022-09-17T14:17:49;6.95;;;3.08;;
52956;SDS011;38819;42.692;23.342;2022-09-17T14:20:17;7.50;;;3.05;;
52956;SDS011;38819;42.692;23.342;2022-09-17T14:22:52;6.18;;;3.08;;
52956;SDS011;38819;42.692;23.342;2022-09-17T14:25:24;8.38;;;3.60;;
52956;SDS011;38819;42.692;23.342;2022-09-17T14:28:12;9.88;;;3.95;;
52956;SDS011;38819;42.692;23.342;2022-09-17T14:30:56;16.08;;;3.92;;
52956;SDS011;38819;42.692;23.342;2022-09-17T14:33:23;6.70;;;3.00;;
52956;SDS011;38819;42.692;23.342;2022-09-17T14:35:55;3.97;;;3.05;;
52956;SDS011;38819;42.692;23.342;2022-09-17T14:38:33;9.98;;;3.72;;
52956;SDS011;38819;42.692;23.342;2022-09-17T14:43:40;5.03;;;3.47;;
52956;SDS011;38819;42.692;23.342;2022-09-17T14:46:32;9.18;;;3.53;;
52956;SDS011;38819;42.692;23.342;2022-09-17T14:49:16;6.60;;;3.28;;
52956;SDS011;38819;42.692;23.342;2022-09-17T14:51:55;4.63;;;2.45;;
52956;SDS011;38819;42.692;23.342;2022-09-17T14:56:55;5.63;;;2.92;;
52956;SDS011;38819;42.692;23.342;2022-09-17T14:59:43;3.85;;;2.25;;
52956;SDS011;38819;42.692;23.342;2022-09-17T15:04:56;5.18;;;1.98;;
52956;SDS011;38819;42.692;23.342;2022-09-17T15:07:23;2.78;;;1.88;;
52956;SDS011;38819;42.692;23.342;2022-09-17T15:09:49;4.43;;;1.50;;
52956;SDS011;38819;42.692;23.342;2022-09-17T15:12:19;7.82;;;2.55;;
52956;SDS011;38819;42.692;23.342;2022-09-17T15:14:49;6.57;;;1.92;;
52956;SDS011;38819;42.692;23.342;2022-09-17T15:19:47;6.07;;;2.72;;
52956;SDS011;38819;42.692;23.342;2022-09-17T15:22:28;2.30;;;1.73;;
52956;SDS011;38819;42.692;23.342;2022-09-17T15:25:01;3.63;;;1.45;;
52956;SDS011;38819;42.692;23.342;2022-09-17T15:27:38;3.13;;;1.60;;
52956;SDS011;38819;42.692;23.342;2022-09-17T15:30:39;6.40;;;2.13;;
52956;SDS011;38819;42.692;23.342;2022-09-17T15:32:57;4.50;;;1.55;;
52956;SDS011;38819;42.692;23.342;2022-09-17T15:35:30;2.17;;;1.25;;
52956;SDS011;38819;42.692;23.342;2022-09-17T15:40:48;3.65;;;2.45;;
52956;SDS011;38819;42.692;23.342;2022-09-17T15:43:33;7.00;;;2.00;;
52956;SDS011;38819;42.692;23.342;2022-09-17T15:48:51;12.25;;;2.97;;
52956;SDS011;38819;42.692;23.342;2022-09-17T15:53:55;7.18;;;2.70;;
52956;SDS011;38819;42.692;23.342;2022-09-17T15:56:23;8.18;;;2.47;;
52956;SDS011;38819;42.692;23.342;2022-09-17T15:58:57;9.75;;;2.97;;
52956;SDS011;38819;42.692;23.342;2022-09-17T16:11:28;5.53;;;2.53;;
52956;SDS011;38819;42.692;23.342;2022-09-17T16:13:55;5.47;;;2.67;;
52956;SDS011;38819;42.692;23.342;2022-09-17T16:16:24;3.35;;;2.22;;
52956;SDS011;38819;42.692;23.342;2022-09-17T16:18:55;3.50;;;2.22;;
52956;SDS011;38819;42.692;23.342;2022-09-17T16:21:21;6.10;;;1.85;;
52956;SDS011;38819;42.692;23.342;2022-09-17T16:23:46;5.13;;;3.80;;
52956;SDS011;38819;42.692;23.342;2022-09-17T16:26:23;3.33;;;2.25;;
52956;SDS011;38819;42.692;23.342;2022-09-17T16:28:53;9.77;;;2.72;;
52956;SDS011;38819;42.692;23.342;2022-09-17T16:31:23;3.65;;;2.22;;
52956;SDS011;38819;42.692;23.342;2022-09-17T16:33:49;1.98;;;1.42;;
52956;SDS011;38819;42.692;23.342;2022-09-17T16:36:15;5.80;;;2.50;;
52956;SDS011;38819;42.692;23.342;2022-09-17T16:38:41;3.97;;;1.77;;
52956;SDS011;38819;42.692;23.342;2022-09-17T16:41:06;5.30;;;2.03;;
52956;SDS011;38819;42.692;23.342;2022-09-17T16:43:32;6.72;;;2.25;;
52956;SDS011;38819;42.692;23.342;2022-09-17T16:46:02;4.85;;;2.53;;
52956;SDS011;38819;42.692;23.342;2022-09-17T16:48:29;7.05;;;2.80;;
52956;SDS011;38819;42.692;23.342;2022-09-17T16:50:55;6.93;;;2.30;;
52956;SDS011;38819;42.692;23.342;2022-09-17T16:53:21;4.93;;;2.67;;
52956;SDS011;38819;42.692;23.342;2022-09-17T16:55:46;4.25;;;2.28;;
52956;SDS011;38819;42.692;23.342;2022-09-17T16:58:11;4.30;;;2.65;;
52956;SDS011;38819;42.692;23.342;2022-09-17T17:00:37;3.10;;;2.10;;
52956;SDS011;38819;42.692;23.342;2022-09-17T17:03:02;6.57;;;2.45;;
52956;SDS011;38819;42.692;23.342;2022-09-17T17:05:28;5.30;;;2.00;;
52956;SDS011;38819;42.692;23.342;2022-09-17T17:07:55;3.33;;;1.98;;
52956;SDS011;38819;42.692;23.342;2022-09-17T17:10:22;7.53;;;2.47;;
52956;SDS011;38819;42.692;23.342;2022-09-17T17:12:50;13.60;;;2.53;;
52956;SDS011;38819;42.692;23.342;2022-09-17T17:15:16;7.35;;;2.83;;
52956;SDS011;38819;42.692;23.342;2022-09-17T17:17:43;6.78;;;3.53;;
52956;SDS011;38819;42.692;23.342;2022-09-17T17:20:08;4.32;;;2.03;;
52956;SDS011;38819;42.692;23.342;2022-09-17T17:22:37;6.32;;;2.10;;
52956;SDS011;38819;42.692;23.342;2022-09-17T17:25:04;4.80;;;2.75;;
52956;SDS011;38819;42.692;23.342;2022-09-17T17:27:30;7.00;;;2.90;;
52956;SDS011;38819;42.692;23.342;2022-09-17T17:29:56;8.15;;;2.72;;
52956;SDS011;38819;42.692;23.342;2022-09-17T17:32:21;4.80;;;3.17;;
52956;SDS011;38819;42.692;23.342;2022-09-17T17:34:47;5.43;;;2.53;;
52956;SDS011;38819;42.692;23.342;2022-09-17T17:37:14;6.60;;;3.85;;
52956;SDS011;38819;42.692;23.342;2022-09-17T17:39:40;6.22;;;2.60;;
52956;SDS011;38819;42.692;23.342;2022-09-17T17:42:05;5.20;;;2.60;;
52956;SDS011;38819;42.692;23.342;2022-09-17T17:44:31;9.35;;;2.88;;
52956;SDS011;38819;42.692;23.342;2022-09-17T17:46:56;7.57;;;3.25;;
52956;SDS011;38819;42.692;23.342;2022-09-17T17:49:21;5.15;;;3.10;;
52956;SDS011;38819;42.692;23.342;2022-09-17T17:51:47;8.80;;;3.30;;
52956;SDS011;38819;42.692;23.342;2022-09-17T17:54:12;7.35;;;3.08;;
52956;SDS011;38819;42.692;23.342;2022-09-17T17:56:38;4.90;;;2.50;;
52956;SDS011;38819;42.692;23.342;2022-09-17T17:59:04;7.65;;;2.40;;
52956;SDS011;38819;42.692;23.342;2022-09-17T18:01:29;4.05;;;2.08;;
52956;SDS011;38819;42.692;23.342;2022-09-17T18:03:59;6.75;;;3.95;;
52956;SDS011;38819;42.692;23.342;2022-09-17T18:06:27;10.50;;;2.88;;
52956;SDS011;38819;42.692;23.342;2022-09-17T18:08:53;4.22;;;2.88;;
52956;SDS011;38819;42.692;23.342;2022-09-17T18:11:18;11.20;;;6.30;;
52956;SDS011;38819;42.692;23.342;2022-09-17T18:13:44;7.45;;;2.90;;
52956;SDS011;38819;42.692;23.342;2022-09-17T18:16:13;7.07;;;3.08;;
52956;SDS011;38819;42.692;23.342;2022-09-17T18:18:42;6.47;;;2.38;;
52956;SDS011;38819;42.692;23.342;2022-09-17T18:21:09;6.90;;;2.88;;
52956;SDS011;38819;42.692;23.342;2022-09-17T18:23:37;3.90;;;2.65;;
52956;SDS011;38819;42.692;23.342;2022-09-17T18:28:30;8.48;;;2.90;;
52956;SDS011;38819;42.692;23.342;2022-09-17T18:30:56;5.00;;;2.42;;